Pagina principale
METAR-TAF:

METAR-TAF

Aeroporti :

Passo di Resia, Italia

latitudine: 46-50N, longitudine: 010-30E, altezza: 1800 m

Osservazione

Il bollettino è stato emesso 1 ora e 12 minuti fa, alle 16:55 UTC
Vento 11 kt da nord/nord-ovest con raffiche fino a 24 kt
Temperature -1°C
Umidità 50%
Pressione 1017 hPa
Visibilità 10 km o più
Poco nuvoloso ad un'altezza di 1800 ft

METAR: LIVE 201655Z 34011G24KT 9999 FEW018 M01/M10 Q1017 RMK FEW VIS MIN 9999

Ora: 19:07 (18:07 UTC)


TAF: mancante

Osservazioni e previsioni meteorologiche di più di 4000 aeroporti (messaggi METAR e TAF).

Le stazioni disponibili sono rappresentate dai dischi gialli e rossi sulla carta.

Puntare il mouse per vedere il nome della stazione.

Clicca sopra per visualizzare le osservazioni e previsioni meteorologiche.

Per cambiare la mappa : fare clic sui pulsanti verdi con una croce nera per ingrandire, il pulsante verde con un trattino per diminuire, o sulla freccia verde per le mappe adiacenti.


METAR-TAF: